<?xml version="1.0" encoding="UTF-8"?>
<gpx version="1.0" creator="Trackator" xmlns:xsi="http://www.w3.org/2001/XMLSchema-instance" xmlns="http://www.topografix.com/GPX/1/0" xmlns:topografix="http://www.topografix.com/GPX/Private/TopoGrafix/0/1" xsi:schemaLocation="http://www.topografix.com/GPX/1/0 http://www.topografix.com/GPX/1/0/gpx.xsd http://www.topografix.com/GPX/Private/TopoGrafix/0/1 http://www.topografix.com/GPX/Private/TopoGrafix/0/1/topografix.xsd">
<metadata>
<link href="http://www.trackalia.com/trackatorweb.php">
<text>Trackator</text>
</link>
</metadata>
<time>2017-08-04T21:16:59Z</time>
<trk>
<name>Track: </name>
<desc>Cycling</desc>
<trkseg>
<trkpt lat="53.3477583" lon="18.4361764">
<ele>78</ele>
<time>2017-08-04T21:16:59Z</time>
</trkpt>
<trkpt lat="53.3478097" lon="18.4347066">
<ele>299</ele>
<time>2017-08-04T21:17:02Z</time>
</trkpt>
<trkpt lat="53.3478422" lon="18.4347928">
<ele>285</ele>
<time>2017-08-04T21:17:04Z</time>
</trkpt>
<trkpt lat="53.3478557" lon="18.4348645">
<ele>277</ele>
<time>2017-08-04T21:17:06Z</time>
</trkpt>
<trkpt lat="53.3478461" lon="18.4350119">
<ele>288</ele>
<time>2017-08-04T21:17:08Z</time>
</trkpt>
<trkpt lat="53.3477988" lon="18.4352065">
<ele>324</ele>
<time>2017-08-04T21:17:10Z</time>
</trkpt>
<trkpt lat="53.3477839" lon="18.4352751">
<ele>356</ele>
<time>2017-08-04T21:17:12Z</time>
</trkpt>
<trkpt lat="53.3477910" lon="18.4353523">
<ele>345</ele>
<time>2017-08-04T21:17:14Z</time>
</trkpt>
<trkpt lat="53.3478189" lon="18.4353143">
<ele>311</ele>
<time>2017-08-04T21:17:16Z</time>
</trkpt>
<trkpt lat="53.3478457" lon="18.4352847">
<ele>284</ele>
<time>2017-08-04T21:17:18Z</time>
</trkpt>
<trkpt lat="53.3478655" lon="18.4353014">
<ele>262</ele>
<time>2017-08-04T21:17:20Z</time>
</trkpt>
<trkpt lat="53.3478817" lon="18.4353507">
<ele>245</ele>
<time>2017-08-04T21:17:22Z</time>
</trkpt>
<trkpt lat="53.3478904" lon="18.4354527">
<ele>231</ele>
<time>2017-08-04T21:17:24Z</time>
</trkpt>
<trkpt lat="53.3478673" lon="18.4356526">
<ele>228</ele>
<time>2017-08-04T21:17:26Z</time>
</trkpt>
<trkpt lat="53.3478438" lon="18.4357386">
<ele>204</ele>
<time>2017-08-04T21:17:28Z</time>
</trkpt>
<trkpt lat="53.3478463" lon="18.4356528">
<ele>183</ele>
<time>2017-08-04T21:17:30Z</time>
</trkpt>
<trkpt lat="53.3478367" lon="18.4355584">
<ele>198</ele>
<time>2017-08-04T21:17:32Z</time>
</trkpt>
<trkpt lat="53.3478154" lon="18.4354923">
<ele>214</ele>
<time>2017-08-04T21:17:34Z</time>
</trkpt>
<trkpt lat="53.3477857" lon="18.4354936">
<ele>241</ele>
<time>2017-08-04T21:17:36Z</time>
</trkpt>
<trkpt lat="53.3477729" lon="18.4355061">
<ele>246</ele>
<time>2017-08-04T21:17:38Z</time>
</trkpt>
<trkpt lat="53.3477847" lon="18.4354765">
<ele>229</ele>
<time>2017-08-04T21:17:40Z</time>
</trkpt>
<trkpt lat="53.3478164" lon="18.4354599">
<ele>194</ele>
<time>2017-08-04T21:17:42Z</time>
</trkpt>
<trkpt lat="53.3478353" lon="18.4354968">
<ele>166</ele>
<time>2017-08-04T21:17:44Z</time>
</trkpt>
<trkpt lat="53.3478628" lon="18.4354163">
<ele>145</ele>
<time>2017-08-04T21:17:46Z</time>
</trkpt>
<trkpt lat="53.3478727" lon="18.4353793">
<ele>141</ele>
<time>2017-08-04T21:17:48Z</time>
</trkpt>
<trkpt lat="53.3479001" lon="18.4353802">
<ele>128</ele>
<time>2017-08-04T21:17:50Z</time>
</trkpt>
<trkpt lat="53.3479162" lon="18.4353989">
<ele>117</ele>
<time>2017-08-04T21:17:52Z</time>
</trkpt>
<trkpt lat="53.3479319" lon="18.4355138">
<ele>102</ele>
<time>2017-08-04T21:17:54Z</time>
</trkpt>
<trkpt lat="53.3479301" lon="18.4356712">
<ele>87</ele>
<time>2017-08-04T21:17:56Z</time>
</trkpt>
<trkpt lat="53.3479267" lon="18.4357931">
<ele>72</ele>
<time>2017-08-04T21:17:58Z</time>
</trkpt>
<trkpt lat="53.3479160" lon="18.4358924">
<ele>64</ele>
<time>2017-08-04T21:18:00Z</time>
</trkpt>
<trkpt lat="53.3479062" lon="18.4359746">
<ele>54</ele>
<time>2017-08-04T21:18:02Z</time>
</trkpt>
<trkpt lat="53.3479038" lon="18.4359864">
<ele>52</ele>
<time>2017-08-04T21:18:04Z</time>
</trkpt>
<trkpt lat="53.3479086" lon="18.4360468">
<ele>43</ele>
<time>2017-08-04T21:18:06Z</time>
</trkpt>
<trkpt lat="53.3479044" lon="18.4361322">
<ele>32</ele>
<time>2017-08-04T21:18:08Z</time>
</trkpt>
<trkpt lat="53.3478850" lon="18.4363507">
<ele>8</ele>
<time>2017-08-04T21:18:12Z</time>
</trkpt>
<trkpt lat="53.3478369" lon="18.4367392">
<ele>-29</ele>
<time>2017-08-04T21:18:16Z</time>
</trkpt>
<trkpt lat="53.3478159" lon="18.4369096">
<ele>-43</ele>
<time>2017-08-04T21:18:18Z</time>
</trkpt>
<trkpt lat="53.3478008" lon="18.4370842">
<ele>-52</ele>
<time>2017-08-04T21:18:20Z</time>
</trkpt>
<trkpt lat="53.3477801" lon="18.4372366">
<ele>-58</ele>
<time>2017-08-04T21:18:22Z</time>
</trkpt>
<trkpt lat="53.3477780" lon="18.4372804">
<ele>-63</ele>
<time>2017-08-04T21:18:24Z</time>
</trkpt>
<trkpt lat="53.3477869" lon="18.4372704">
<ele>-66</ele>
<time>2017-08-04T21:18:26Z</time>
</trkpt>
<trkpt lat="53.3477871" lon="18.4373594">
<ele>-68</ele>
<time>2017-08-04T21:18:28Z</time>
</trkpt>
<trkpt lat="53.3477845" lon="18.4374115">
<ele>-64</ele>
<time>2017-08-04T21:18:30Z</time>
</trkpt>
<trkpt lat="53.3477835" lon="18.4374791">
<ele>-65</ele>
<time>2017-08-04T21:18:32Z</time>
</trkpt>
<trkpt lat="53.3477870" lon="18.4375413">
<ele>-65</ele>
<time>2017-08-04T21:18:34Z</time>
</trkpt>
<trkpt lat="53.3477953" lon="18.4376057">
<ele>-66</ele>
<time>2017-08-04T21:18:36Z</time>
</trkpt>
<trkpt lat="53.3478008" lon="18.4376356">
<ele>-68</ele>
<time>2017-08-04T21:18:38Z</time>
</trkpt>
<trkpt lat="53.3478013" lon="18.4376205">
<ele>-67</ele>
<time>2017-08-04T21:18:40Z</time>
</trkpt>
<trkpt lat="53.3478034" lon="18.4376068">
<ele>-66</ele>
<time>2017-08-04T21:18:42Z</time>
</trkpt>
<trkpt lat="53.3478161" lon="18.4375245">
<ele>-61</ele>
<time>2017-08-04T21:18:44Z</time>
</trkpt>
<trkpt lat="53.3478303" lon="18.4374552">
<ele>-55</ele>
<time>2017-08-04T21:18:46Z</time>
</trkpt>
<trkpt lat="53.3478367" lon="18.4374324">
<ele>-54</ele>
<time>2017-08-04T21:18:48Z</time>
</trkpt>
<trkpt lat="53.3478411" lon="18.4374168">
<ele>-54</ele>
<time>2017-08-04T21:18:50Z</time>
</trkpt>
<trkpt lat="53.3478364" lon="18.4374257">
<ele>-55</ele>
<time>2017-08-04T21:18:52Z</time>
</trkpt>
<trkpt lat="53.3478276" lon="18.4375148">
<ele>-58</ele>
<time>2017-08-04T21:18:54Z</time>
</trkpt>
<trkpt lat="53.3478255" lon="18.4376049">
<ele>-60</ele>
<time>2017-08-04T21:18:56Z</time>
</trkpt>
<trkpt lat="53.3478334" lon="18.4375851">
<ele>-61</ele>
<time>2017-08-04T21:18:58Z</time>
</trkpt>
<trkpt lat="53.3478396" lon="18.4375674">
<ele>-62</ele>
<time>2017-08-04T21:19:00Z</time>
</trkpt>
<trkpt lat="53.3478433" lon="18.4375717">
<ele>-65</ele>
<time>2017-08-04T21:19:02Z</time>
</trkpt>
<trkpt lat="53.3478499" lon="18.4374652">
<ele>-62</ele>
<time>2017-08-04T21:19:04Z</time>
</trkpt>
<trkpt lat="53.3478523" lon="18.4373810">
<ele>-61</ele>
<time>2017-08-04T21:19:06Z</time>
</trkpt>
<trkpt lat="53.3478491" lon="18.4373143">
<ele>-59</ele>
<time>2017-08-04T21:19:08Z</time>
</trkpt>
<trkpt lat="53.3478513" lon="18.4372802">
<ele>-59</ele>
<time>2017-08-04T21:19:10Z</time>
</trkpt>
<trkpt lat="53.3478472" lon="18.4371840">
<ele>-57</ele>
<time>2017-08-04T21:19:12Z</time>
</trkpt>
<trkpt lat="53.3478325" lon="18.4371138">
<ele>-54</ele>
<time>2017-08-04T21:19:14Z</time>
</trkpt>
<trkpt lat="53.3478262" lon="18.4370443">
<ele>-51</ele>
<time>2017-08-04T21:19:16Z</time>
</trkpt>
<trkpt lat="53.3478197" lon="18.4370814">
<ele>-54</ele>
<time>2017-08-04T21:19:18Z</time>
</trkpt>
<trkpt lat="53.3477998" lon="18.4371500">
<ele>-56</ele>
<time>2017-08-04T21:19:20Z</time>
</trkpt>
<trkpt lat="53.3477869" lon="18.4371840">
<ele>-57</ele>
<time>2017-08-04T21:19:22Z</time>
</trkpt>
<trkpt lat="53.3477919" lon="18.4371686">
<ele>-58</ele>
<time>2017-08-04T21:19:24Z</time>
</trkpt>
<trkpt lat="53.3478159" lon="18.4370387">
<ele>-55</ele>
<time>2017-08-04T21:19:26Z</time>
</trkpt>
<trkpt lat="53.3478342" lon="18.4369188">
<ele>-53</ele>
<time>2017-08-04T21:19:28Z</time>
</trkpt>
<trkpt lat="53.3478538" lon="18.4368529">
<ele>-54</ele>
<time>2017-08-04T21:19:30Z</time>
</trkpt>
<trkpt lat="53.3478666" lon="18.4368250">
<ele>-53</ele>
<time>2017-08-04T21:19:32Z</time>
</trkpt>
<trkpt lat="53.3478680" lon="18.4368044">
<ele>-53</ele>
<time>2017-08-04T21:19:34Z</time>
</trkpt>
<trkpt lat="53.3478692" lon="18.4368423">
<ele>-51</ele>
<time>2017-08-04T21:19:36Z</time>
</trkpt>
<trkpt lat="53.3478459" lon="18.4370513">
<ele>-45</ele>
<time>2017-08-04T21:19:38Z</time>
</trkpt>
<trkpt lat="53.3478598" lon="18.4370258">
<ele>-45</ele>
<time>2017-08-04T21:19:40Z</time>
</trkpt>
<trkpt lat="53.3478781" lon="18.4369878">
<ele>-47</ele>
<time>2017-08-04T21:19:42Z</time>
</trkpt>
<trkpt lat="53.3478890" lon="18.4369350">
<ele>-46</ele>
<time>2017-08-04T21:19:44Z</time>
</trkpt>
<trkpt lat="53.3478815" lon="18.4369717">
<ele>-42</ele>
<time>2017-08-04T21:19:46Z</time>
</trkpt>
<trkpt lat="53.3478941" lon="18.4369700">
<ele>-39</ele>
<time>2017-08-04T21:19:50Z</time>
</trkpt>
<trkpt lat="53.3478968" lon="18.4369535">
<ele>-41</ele>
<time>2017-08-04T21:19:52Z</time>
</trkpt>
<trkpt lat="53.3478968" lon="18.4369535">
<ele>-41</ele>
<time>2017-08-04T21:19:54Z</time>
</trkpt>
<trkpt lat="53.3478968" lon="18.4369535">
<ele>-41</ele>
<time>2017-08-04T21:19:56Z</time>
</trkpt>
<trkpt lat="53.3478968" lon="18.4369535">
<ele>-41</ele>
<time>2017-08-04T21:19:58Z</time>
</trkpt>
<trkpt lat="53.3479264" lon="18.4367760">
<ele>-44</ele>
<time>2017-08-04T21:20:00Z</time>
</trkpt>
<trkpt lat="53.3479684" lon="18.4364567">
<ele>-35</ele>
<time>2017-08-04T21:20:02Z</time>
</trkpt>
<trkpt lat="53.3479952" lon="18.4362833">
<ele>-35</ele>
<time>2017-08-04T21:20:04Z</time>
</trkpt>
<trkpt lat="53.3480120" lon="18.4361382">
<ele>-33</ele>
<time>2017-08-04T21:20:06Z</time>
</trkpt>
<trkpt lat="53.3480058" lon="18.4360970">
<ele>-24</ele>
<time>2017-08-04T21:20:08Z</time>
</trkpt>
<trkpt lat="53.3480012" lon="18.4360444">
<ele>-16</ele>
<time>2017-08-04T21:20:10Z</time>
</trkpt>
<trkpt lat="53.3479929" lon="18.4359793">
<ele>-8</ele>
<time>2017-08-04T21:20:12Z</time>
</trkpt>
<trkpt lat="53.3479847" lon="18.4359559">
<ele>-6</ele>
<time>2017-08-04T21:20:14Z</time>
</trkpt>
<trkpt lat="53.3479847" lon="18.4359559">
<ele>-6</ele>
<time>2017-08-04T21:20:16Z</time>
</trkpt>
<trkpt lat="53.3479847" lon="18.4359559">
<ele>-6</ele>
<time>2017-08-04T21:20:18Z</time>
</trkpt>
<trkpt lat="53.3479741" lon="18.4359937">
<ele>0</ele>
<time>2017-08-04T21:20:20Z</time>
</trkpt>
<trkpt lat="53.3479630" lon="18.4360219">
<ele>4</ele>
<time>2017-08-04T21:20:22Z</time>
</trkpt>
<trkpt lat="53.3479392" lon="18.4360686">
<ele>14</ele>
<time>2017-08-04T21:20:24Z</time>
</trkpt>
<trkpt lat="53.3479103" lon="18.4361531">
<ele>30</ele>
<time>2017-08-04T21:20:26Z</time>
</trkpt>
<trkpt lat="53.3479008" lon="18.4361461">
<ele>37</ele>
<time>2017-08-04T21:20:28Z</time>
</trkpt>
<trkpt lat="53.3478988" lon="18.4361357">
<ele>38</ele>
<time>2017-08-04T21:20:30Z</time>
</trkpt>
<trkpt lat="53.3478918" lon="18.4361130">
<ele>40</ele>
<time>2017-08-04T21:20:32Z</time>
</trkpt>
<trkpt lat="53.3478918" lon="18.4361130">
<ele>40</ele>
<time>2017-08-04T21:20:34Z</time>
</trkpt>
<trkpt lat="53.3478862" lon="18.4361248">
<ele>41</ele>
<time>2017-08-04T21:20:36Z</time>
</trkpt>
<trkpt lat="53.3478841" lon="18.4361379">
<ele>43</ele>
<time>2017-08-04T21:20:38Z</time>
</trkpt>
<trkpt lat="53.3478816" lon="18.4362433">
<ele>39</ele>
<time>2017-08-04T21:20:40Z</time>
</trkpt>
<trkpt lat="53.3479141" lon="18.4364380">
<ele>23</ele>
<time>2017-08-04T21:20:42Z</time>
</trkpt>
<trkpt lat="53.3479320" lon="18.4364135">
<ele>23</ele>
<time>2017-08-04T21:20:44Z</time>
</trkpt>
<trkpt lat="53.3479219" lon="18.4363920">
<ele>26</ele>
<time>2017-08-04T21:20:46Z</time>
</trkpt>
<trkpt lat="53.3479181" lon="18.4363746">
<ele>28</ele>
<time>2017-08-04T21:20:48Z</time>
</trkpt>
<trkpt lat="53.3479144" lon="18.4363614">
<ele>30</ele>
<time>2017-08-04T21:20:50Z</time>
</trkpt>
<trkpt lat="53.3479059" lon="18.4363679">
<ele>32</ele>
<time>2017-08-04T21:20:52Z</time>
</trkpt>
<trkpt lat="53.3479030" lon="18.4363489">
<ele>33</ele>
<time>2017-08-04T21:20:54Z</time>
</trkpt>
<trkpt lat="53.3478856" lon="18.4363329">
<ele>35</ele>
<time>2017-08-04T21:20:56Z</time>
</trkpt>
<trkpt lat="53.3478703" lon="18.4363037">
<ele>39</ele>
<time>2017-08-04T21:20:58Z</time>
</trkpt>
<trkpt lat="53.3478627" lon="18.4362916">
<ele>40</ele>
<time>2017-08-04T21:21:00Z</time>
</trkpt>
<trkpt lat="53.3478486" lon="18.4362748">
<ele>44</ele>
<time>2017-08-04T21:21:02Z</time>
</trkpt>
<trkpt lat="53.3478433" lon="18.4362301">
<ele>47</ele>
<time>2017-08-04T21:21:04Z</time>
</trkpt>
<trkpt lat="53.3478463" lon="18.4361258">
<ele>50</ele>
<time>2017-08-04T21:21:06Z</time>
</trkpt>
<trkpt lat="53.3478575" lon="18.4360576">
<ele>53</ele>
<time>2017-08-04T21:21:08Z</time>
</trkpt>
<trkpt lat="53.3478633" lon="18.4359928">
<ele>55</ele>
<time>2017-08-04T21:21:10Z</time>
</trkpt>
<trkpt lat="53.3478724" lon="18.4359013">
<ele>57</ele>
<time>2017-08-04T21:21:12Z</time>
</trkpt>
<trkpt lat="53.3478761" lon="18.4358294">
<ele>59</ele>
<time>2017-08-04T21:21:14Z</time>
</trkpt>
<trkpt lat="53.3478859" lon="18.4358050">
<ele>60</ele>
<time>2017-08-04T21:21:16Z</time>
</trkpt>
<trkpt lat="" lon="">
<ele></ele>
<time>2017-08-04TZ</time>
</trkpt>
</trkseg>
</trk>
<wpt lat="" lon="">
	<name></name>
	<desc></desc>
	<cmt></cmt>
	<photoid></photoid>
	<type></type>
</wpt>
</gpx>
